createdAt,value
2017-02-01T00:00:41.699Z,99.99
2017-02-01T00:01:41.673Z,99.99
2017-02-01T00:02:41.244Z,99.99
2017-02-01T00:03:41.614Z,99.99
2017-02-01T00:04:41.182Z,99.99
2017-02-01T00:05:41.568Z,99.99
2017-02-01T00:06:41.140Z,99.99
2017-02-01T00:07:41.517Z,99.99
2017-02-01T00:08:41.487Z,99.99
2017-02-01T00:09:41.062Z,99.99
2017-02-01T00:10:41.026Z,99.99
2017-02-01T00:11:41.415Z,99.99
2017-02-01T00:12:40.985Z,99.99
2017-02-01T00:13:41.372Z,99.99
2017-02-01T00:14:40.931Z,99.99
2017-02-01T00:15:40.908Z,99.99
2017-02-01T00:16:40.877Z,99.99
2017-02-01T00:17:41.264Z,99.99
2017-02-01T00:18:41.229Z,99.99
2017-02-01T00:19:41.204Z,99.99
2017-02-01T00:20:40.774Z,99.99
2017-02-01T00:21:41.171Z,99.99
2017-02-01T00:22:41.130Z,99.99
2017-02-01T00:23:41.099Z,99.99
2017-02-01T00:24:41.079Z,99.99
2017-02-01T00:25:41.079Z,99.99
2017-02-01T00:26:41.022Z,99.99
2017-02-01T00:27:40.997Z,99.99
2017-02-01T00:28:40.567Z,99.99
2017-02-01T00:29:40.545Z,99.99
2017-02-01T00:30:40.926Z,99.99
2017-02-01T00:31:40.487Z,99.99
2017-02-01T00:32:40.461Z,99.99
2017-02-01T00:33:40.435Z,99.99
2017-02-01T00:34:40.818Z,99.99
2017-02-01T00:35:40.386Z,99.99
2017-02-01T00:36:40.763Z,99.99
2017-02-01T00:37:40.359Z,99.99
2017-02-01T00:38:40.714Z,99.99
2017-02-01T00:39:40.679Z,99.99
2017-02-01T00:40:40.669Z,99.99
2017-02-01T00:41:40.639Z,99.99
2017-02-01T00:42:40.630Z,99.99
2017-02-01T00:43:40.588Z,99.99
2017-02-01T00:44:40.567Z,99.99
2017-02-01T00:45:40.536Z,99.99
2017-02-01T00:46:40.501Z,99.99
2017-02-01T00:47:40.479Z,99.99
2017-02-01T00:48:40.454Z,99.99
2017-02-01T00:49:40.435Z,99.99
2017-02-01T00:50:40.004Z,99.99
2017-02-01T00:51:40.374Z,99.99
2017-02-01T00:52:40.382Z,99.99
2017-02-01T00:53:40.321Z,99.99
2017-02-01T00:54:40.301Z,99.99
2017-02-01T00:55:39.870Z,99.99
2017-02-01T00:56:39.863Z,99.99
2017-02-01T00:57:40.223Z,99.99
2017-02-01T00:58:40.198Z,99.99
2017-02-01T00:59:40.178Z,99.99
2017-02-01T01:00:39.741Z,99.99
2017-02-01T01:01:39.706Z,99.99
2017-02-01T01:02:39.784Z,99.99
2017-02-01T01:03:39.687Z,99.99
2017-02-01T01:04:40.036Z,99.99
2017-02-01T01:05:40.027Z,99.99
2017-02-01T01:06:40.015Z,99.99
2017-02-01T01:07:39.556Z,99.99
2017-02-01T01:08:39.934Z,99.99
2017-02-01T01:09:39.514Z,99.99
2017-02-01T01:10:39.898Z,99.99
2017-02-01T01:11:39.853Z,99.99
2017-02-01T01:12:39.831Z,99.99
2017-02-01T01:13:39.801Z,99.99
2017-02-01T01:14:39.782Z,99.99
2017-02-01T01:15:39.345Z,99.99
2017-02-01T01:16:39.723Z,99.99
2017-02-01T01:17:39.714Z,99.99
2017-02-01T01:18:39.676Z,99.99
2017-02-01T01:19:39.271Z,99.99
2017-02-01T01:20:39.628Z,99.99
2017-02-01T01:21:39.589Z,99.99
2017-02-01T01:22:39.174Z,99.99
2017-02-01T01:23:39.534Z,99.99
2017-02-01T01:24:39.518Z,99.99
2017-02-01T01:25:39.095Z,99.99
2017-02-01T01:26:39.061Z,99.99
2017-02-01T01:27:39.438Z,99.99
2017-02-01T01:28:39.411Z,99.99
2017-02-01T01:29:39.384Z,99.99
2017-02-01T01:30:39.355Z,99.99
2017-02-01T01:31:38.939Z,99.99
2017-02-01T01:32:38.905Z,99.99
2017-02-01T01:33:38.883Z,99.99
2017-02-01T01:34:38.859Z,99.99
2017-02-01T01:35:39.237Z,99.99
2017-02-01T01:36:39.215Z,99.99
2017-02-01T01:37:39.182Z,99.99
2017-02-01T01:38:39.155Z,99.99
2017-02-01T01:39:39.128Z,99.99
2017-02-01T01:40:39.100Z,99.99
2017-02-01T01:41:39.079Z,99.99
2017-02-01T01:42:39.050Z,99.99
2017-02-01T01:43:39.024Z,99.99
2017-02-01T01:44:39.001Z,99.99
2017-02-01T01:45:38.969Z,99.99
2017-02-01T01:46:38.946Z,99.99
2017-02-01T01:47:38.521Z,99.99
2017-02-01T01:48:38.890Z,99.99
2017-02-01T01:49:38.466Z,99.99
2017-02-01T01:50:38.847Z,99.99
2017-02-01T01:51:38.828Z,99.99
2017-02-01T01:52:38.396Z,99.99
2017-02-01T01:53:38.363Z,99.99
2017-02-01T01:54:38.334Z,99.99
2017-02-01T01:55:38.316Z,99.99
2017-02-01T01:56:38.284Z,99.99
2017-02-01T01:57:38.662Z,99.99
2017-02-01T01:58:38.244Z,99.99
2017-02-01T01:59:38.622Z,99.99
2017-02-01T02:00:38.586Z,99.99
2017-02-01T02:01:38.152Z,99.99
2017-02-01T02:02:38.543Z,99.99
2017-02-01T02:03:38.505Z,99.99
2017-02-01T02:04:38.494Z,99.99
2017-02-01T02:05:38.059Z,99.99
2017-02-01T02:06:38.434Z,99.99
2017-02-01T02:07:38.407Z,99.99
2017-02-01T02:08:37.986Z,99.99
2017-02-01T02:09:38.345Z,99.99
2017-02-01T02:10:38.370Z,99.99
2017-02-01T02:11:37.896Z,99.99
2017-02-01T02:12:37.884Z,99.99
2017-02-01T02:13:37.856Z,99.99
2017-02-01T02:14:38.221Z,99.99
2017-02-01T02:15:38.199Z,99.99
2017-02-01T02:16:38.184Z,99.99
2017-02-01T02:17:38.149Z,99.99
2017-02-01T02:18:37.719Z,99.99
2017-02-01T02:19:37.746Z,99.99
2017-02-01T02:20:38.074Z,99.99
2017-02-01T02:21:37.698Z,99.99
2017-02-01T02:22:37.608Z,99.99
2017-02-01T02:23:37.990Z,99.99
2017-02-01T02:24:37.559Z,99.99
2017-02-01T02:25:37.944Z,99.99
2017-02-01T02:26:37.913Z,99.99
2017-02-01T02:27:37.577Z,99.99
2017-02-01T02:28:37.860Z,99.99
2017-02-01T02:29:37.841Z,99.99
2017-02-01T02:30:37.816Z,99.99
2017-02-01T02:31:37.787Z,99.99
2017-02-01T02:32:37.761Z,99.99
2017-02-01T02:33:37.744Z,99.99
2017-02-01T02:34:37.712Z,99.99
2017-02-01T02:35:37.695Z,99.99
2017-02-01T02:36:37.682Z,99.99
2017-02-01T02:37:37.628Z,99.99
2017-02-01T02:38:37.604Z,99.99
2017-02-01T02:39:37.576Z,99.99
2017-02-01T02:40:37.557Z,99.99
2017-02-01T02:41:37.528Z,99.99
2017-02-01T02:42:37.508Z,99.99
2017-02-01T02:43:37.479Z,99.99
2017-02-01T02:44:37.054Z,99.99
2017-02-01T02:45:37.023Z,99.99
2017-02-01T02:46:36.999Z,99.99
2017-02-01T02:47:36.970Z,99.99
2017-02-01T02:48:36.945Z,99.99
2017-02-01T02:49:37.345Z,99.99
2017-02-01T02:50:37.289Z,99.99
2017-02-01T02:51:37.270Z,99.99
2017-02-01T02:52:37.255Z,99.99
2017-02-01T02:53:37.218Z,99.99
2017-02-01T02:54:36.785Z,99.99
2017-02-01T02:55:36.761Z,99.99
2017-02-01T02:56:36.762Z,99.99
2017-02-01T02:57:37.114Z,99.99
2017-02-01T02:58:36.693Z,99.99
2017-02-01T02:59:37.068Z,99.99
2017-02-01T03:00:37.036Z,99.99
2017-02-01T03:01:37.028Z,99.99
2017-02-01T03:02:36.982Z,99.99
2017-02-01T03:03:36.590Z,99.99
2017-02-01T03:04:36.538Z,99.99
2017-02-01T03:05:36.507Z,99.99
2017-02-01T03:06:36.887Z,99.99
2017-02-01T03:07:36.854Z,99.99
2017-02-01T03:08:36.833Z,99.99
2017-02-01T03:09:36.807Z,99.99
2017-02-01T03:10:36.779Z,99.99
2017-02-01T03:11:36.352Z,99.99
2017-02-01T03:12:36.330Z,99.99
2017-02-01T03:13:36.699Z,99.99
2017-02-01T03:14:36.680Z,99.99
2017-02-01T03:15:36.282Z,99.99
2017-02-01T03:16:36.222Z,99.99
2017-02-01T03:17:36.212Z,99.99
2017-02-01T03:18:36.577Z,99.99
2017-02-01T03:19:36.552Z,99.99
2017-02-01T03:20:36.122Z,99.99
2017-02-01T03:21:36.099Z,99.99
2017-02-01T03:22:36.491Z,99.99
2017-02-01T03:23:36.460Z,99.99
2017-02-01T03:24:36.030Z,99.99
2017-02-01T03:25:35.992Z,99.99
2017-02-01T03:26:36.371Z,99.99
2017-02-01T03:27:36.347Z,99.99
2017-02-01T03:28:36.325Z,99.99
2017-02-01T03:29:36.303Z,99.99
2017-02-01T03:30:36.275Z,99.99
2017-02-01T03:31:35.845Z,99.99
2017-02-01T03:32:36.225Z,99.99
2017-02-01T03:33:36.196Z,99.99
2017-02-01T03:34:36.167Z,99.99
2017-02-01T03:35:36.143Z,99.99
2017-02-01T03:36:36.129Z,99.99
2017-02-01T03:37:36.094Z,99.99
2017-02-01T03:38:35.673Z,99.99
2017-02-01T03:39:35.633Z,99.99
2017-02-01T03:40:36.023Z,99.99
2017-02-01T03:41:35.594Z,99.99
2017-02-01T03:42:35.972Z,99.99
2017-02-01T03:43:35.943Z,99.99
2017-02-01T03:44:35.525Z,99.99
2017-02-01T03:45:35.889Z,99.99
2017-02-01T03:46:35.870Z,99.99
2017-02-01T03:47:35.435Z,99.99
2017-02-01T03:48:35.405Z,99.99
2017-02-01T03:49:35.786Z,99.99
2017-02-01T03:50:35.368Z,99.99
2017-02-01T03:51:35.738Z,99.99
2017-02-01T03:52:35.714Z,99.99
2017-02-01T03:53:35.684Z,99.99
2017-02-01T03:54:35.251Z,99.99
2017-02-01T03:55:35.635Z,99.99
2017-02-01T03:56:35.203Z,99.99
2017-02-01T03:57:35.177Z,99.99
2017-02-01T03:58:35.554Z,99.99
2017-02-01T03:59:35.533Z,99.99
2017-02-01T04:00:35.502Z,99.99
2017-02-01T04:01:35.495Z,99.99
2017-02-01T04:02:35.453Z,99.99
2017-02-01T04:03:35.431Z,99.99
2017-02-01T04:04:35.401Z,99.99
2017-02-01T04:05:34.973Z,99.99
2017-02-01T04:06:34.953Z,99.99
2017-02-01T04:07:34.932Z,99.99
2017-02-01T04:08:35.311Z,99.99
2017-02-01T04:09:34.867Z,99.99
2017-02-01T04:10:35.331Z,99.99
2017-02-01T04:11:34.811Z,99.99
2017-02-01T04:12:34.788Z,99.99
2017-02-01T04:13:35.164Z,99.99
2017-02-01T04:14:34.738Z,99.99
2017-02-01T04:15:34.717Z,99.99
2017-02-01T04:16:35.080Z,99.99
2017-02-01T04:17:35.062Z,99.99
2017-02-01T04:18:34.637Z,99.99
2017-02-01T04:19:35.006Z,99.99
2017-02-01T04:20:34.980Z,99.99
2017-02-01T04:21:34.555Z,99.99
2017-02-01T04:22:34.522Z,99.99
2017-02-01T04:23:34.903Z,99.99
2017-02-01T04:24:34.880Z,99.99
2017-02-01T04:25:34.449Z,99.99
2017-02-01T04:26:34.831Z,99.99
2017-02-01T04:27:34.394Z,99.99
2017-02-01T04:28:34.371Z,99.99
2017-02-01T04:29:34.343Z,99.99
2017-02-01T04:30:34.716Z,99.99
2017-02-01T04:31:34.699Z,99.99
2017-02-01T04:32:34.664Z,99.99
2017-02-01T04:33:34.235Z,99.99
2017-02-01T04:34:34.618Z,99.99
2017-02-01T04:35:34.597Z,99.99
2017-02-01T04:36:34.160Z,99.99
2017-02-01T04:37:34.136Z,99.99
2017-02-01T04:38:34.507Z,99.99
2017-02-01T04:39:34.079Z,99.99
2017-02-01T04:40:34.064Z,99.99
2017-02-01T04:41:34.429Z,99.99
2017-02-01T04:42:34.004Z,99.99
2017-02-01T04:43:33.989Z,99.99
2017-02-01T04:44:34.349Z,99.99
2017-02-01T04:45:34.329Z,99.99
2017-02-01T04:46:33.897Z,99.99
2017-02-01T04:47:34.271Z,99.99
2017-02-01T04:48:34.248Z,99.99
2017-02-01T04:49:34.220Z,99.99
2017-02-01T04:50:33.800Z,99.99
2017-02-01T04:51:34.178Z,99.99
2017-02-01T04:52:33.751Z,99.99
2017-02-01T04:53:33.804Z,99.99
2017-02-01T04:54:34.095Z,99.99
2017-02-01T04:55:34.063Z,99.99
2017-02-01T04:56:34.040Z,99.99
2017-02-01T04:57:34.020Z,99.99
2017-02-01T04:58:33.575Z,99.99
2017-02-01T04:59:33.961Z,99.99
2017-02-01T05:00:33.524Z,99.99
2017-02-01T05:01:33.924Z,99.99
2017-02-01T05:02:33.895Z,99.99
2017-02-01T05:03:33.853Z,99.99
2017-02-01T05:04:33.434Z,99.99
2017-02-01T05:05:33.798Z,99.99
2017-02-01T05:06:33.394Z,99.99
2017-02-01T05:07:33.751Z,99.99
2017-02-01T05:08:33.725Z,99.99
2017-02-01T05:09:33.291Z,99.99
2017-02-01T05:10:33.670Z,99.99
2017-02-01T05:11:33.647Z,99.99
2017-02-01T05:12:33.228Z,99.99
2017-02-01T05:13:33.196Z,99.99
2017-02-01T05:14:33.567Z,99.99
2017-02-01T05:15:33.576Z,99.99
2017-02-01T05:16:33.139Z,99.99
2017-02-01T05:17:33.544Z,99.99
2017-02-01T05:18:33.466Z,99.99
2017-02-01T05:19:33.035Z,99.99
2017-02-01T05:20:33.415Z,99.99
2017-02-01T05:21:32.988Z,99.99
2017-02-01T05:22:33.356Z,99.99
2017-02-01T05:23:33.333Z,99.99
2017-02-01T05:24:33.303Z,99.99
2017-02-01T05:25:33.373Z,99.99
2017-02-01T05:26:33.252Z,99.99
2017-02-01T05:27:33.241Z,99.99
2017-02-01T05:28:32.800Z,99.99
2017-02-01T05:29:32.770Z,99.99
2017-02-01T05:30:32.750Z,99.99
2017-02-01T05:31:32.716Z,99.99
2017-02-01T05:32:32.700Z,99.99
2017-02-01T05:33:33.072Z,99.99
2017-02-01T05:34:33.042Z,99.99
2017-02-01T05:35:33.017Z,99.99
2017-02-01T05:36:32.991Z,99.99
2017-02-01T05:37:32.558Z,99.99
2017-02-01T05:38:32.936Z,99.99
2017-02-01T05:39:32.910Z,99.99
2017-02-01T05:40:32.489Z,99.99
2017-02-01T05:41:32.874Z,99.99
2017-02-01T05:42:32.832Z,99.99
2017-02-01T05:43:32.413Z,99.99
2017-02-01T05:44:32.374Z,99.99
2017-02-01T05:45:32.752Z,99.99
2017-02-01T05:46:32.735Z,99.99
2017-02-01T05:47:32.704Z,99.99
2017-02-01T05:48:32.679Z,99.99
2017-02-01T05:49:32.650Z,99.99
2017-02-01T05:50:32.629Z,99.99
2017-02-01T05:51:32.193Z,99.99
2017-02-01T05:52:32.161Z,99.99
2017-02-01T05:53:32.551Z,99.99
2017-02-01T05:54:32.116Z,99.99
2017-02-01T05:55:32.098Z,99.99
2017-02-01T05:56:32.465Z,99.99
2017-02-01T05:57:32.436Z,99.99
2017-02-01T05:58:32.012Z,99.99
2017-02-01T05:59:32.386Z,99.99
2017-02-01T06:00:32.357Z,99.99
2017-02-01T06:01:32.329Z,99.99
2017-02-01T06:02:31.909Z,99.99
2017-02-01T06:03:31.877Z,99.99
2017-02-01T06:04:32.261Z,99.99
2017-02-01T06:05:32.230Z,99.99
2017-02-01T06:06:32.202Z,99.99
2017-02-01T06:07:31.774Z,99.99
2017-02-01T06:08:32.150Z,99.99
2017-02-01T06:09:32.117Z,99.99
2017-02-01T06:10:32.116Z,99.99
2017-02-01T06:11:32.063Z,99.99
2017-02-01T06:12:32.046Z,99.99
2017-02-01T06:13:31.611Z,99.99
2017-02-01T06:14:31.991Z,99.99
2017-02-01T06:15:31.557Z,99.99
2017-02-01T06:16:31.941Z,99.99
2017-02-01T06:17:31.504Z,99.99
2017-02-01T06:18:31.896Z,99.99
2017-02-01T06:19:31.857Z,99.99
2017-02-01T06:20:31.834Z,99.99
2017-02-01T06:21:31.396Z,99.99
2017-02-01T06:22:31.779Z,99.99
2017-02-01T06:23:31.801Z,99.99
2017-02-01T06:24:31.737Z,99.99
2017-02-01T06:25:31.299Z,99.99
2017-02-01T06:26:31.687Z,99.99
2017-02-01T06:27:31.249Z,99.99
2017-02-01T06:28:31.218Z,99.99
2017-02-01T06:29:31.597Z,99.99
2017-02-01T06:30:31.163Z,99.99
2017-02-01T06:31:31.547Z,99.99
2017-02-01T06:32:31.116Z,99.99
2017-02-01T06:33:31.089Z,99.99
2017-02-01T06:34:31.482Z,99.99
2017-02-01T06:35:31.448Z,99.99
2017-02-01T06:36:31.462Z,99.99
2017-02-01T06:37:31.380Z,99.99
2017-02-01T06:38:31.420Z,99.99
2017-02-01T06:39:31.326Z,99.99
2017-02-01T06:40:31.316Z,99.99
2017-02-01T06:41:31.277Z,99.99
2017-02-01T06:42:31.276Z,99.99
2017-02-01T06:43:31.239Z,99.99
2017-02-01T06:44:31.243Z,99.99
2017-02-01T06:45:30.768Z,99.99
2017-02-01T06:46:31.246Z,99.99
2017-02-01T06:47:31.118Z,99.99
2017-02-01T06:48:31.118Z,99.99
2017-02-01T06:49:31.097Z,99.99
2017-02-01T06:50:31.038Z,99.99
2017-02-01T06:51:30.625Z,99.99
2017-02-01T06:52:30.991Z,99.99
2017-02-01T06:53:30.563Z,99.99
2017-02-01T06:54:30.954Z,99.99
2017-02-01T06:55:30.514Z,99.99
2017-02-01T06:56:30.932Z,99.99
2017-02-01T06:57:30.455Z,99.99
2017-02-01T06:58:30.832Z,99.99
2017-02-01T06:59:30.809Z,99.99
2017-02-01T07:00:30.786Z,99.99
2017-02-01T07:01:30.773Z,99.99
2017-02-01T07:02:30.743Z,99.99
2017-02-01T07:03:30.307Z,99.99
2017-02-01T07:04:30.672Z,99.99
2017-02-01T07:05:30.649Z,99.99
2017-02-01T07:06:30.634Z,99.99
2017-02-01T07:07:30.203Z,99.99
2017-02-01T07:08:30.569Z,99.99
2017-02-01T07:09:30.538Z,99.99
2017-02-01T07:10:30.512Z,99.99
2017-02-01T07:11:30.494Z,99.99
2017-02-01T07:12:30.061Z,99.99
2017-02-01T07:13:30.456Z,99.99
2017-02-01T07:14:30.410Z,99.99
2017-02-01T07:15:30.390Z,99.99
2017-02-01T07:16:30.378Z,99.99
2017-02-01T07:17:30.347Z,99.99
2017-02-01T07:18:30.310Z,99.99
2017-02-01T07:19:30.276Z,99.99
2017-02-01T07:20:30.278Z,99.99
2017-02-01T07:21:30.224Z,99.99
2017-02-01T07:22:29.797Z,99.99
2017-02-01T07:23:29.769Z,99.99
2017-02-01T07:24:29.755Z,99.99
2017-02-01T07:25:30.128Z,99.99
2017-02-01T07:26:29.784Z,99.99
2017-02-01T07:27:30.078Z,99.99
2017-02-01T07:28:29.643Z,99.99
2017-02-01T07:29:29.621Z,99.99
2017-02-01T07:30:30.041Z,99.99
2017-02-01T07:31:29.979Z,99.99
2017-02-01T07:32:29.942Z,99.99
2017-02-01T07:33:29.506Z,99.99
2017-02-01T07:34:29.882Z,99.99
2017-02-01T07:35:29.459Z,99.99
2017-02-01T07:36:29.985Z,99.99
2017-02-01T07:37:29.858Z,99.99
2017-02-01T07:38:29.411Z,99.99
2017-02-01T07:39:29.757Z,99.99
2017-02-01T07:40:29.421Z,99.99
2017-02-01T07:41:29.699Z,99.99
2017-02-01T07:42:29.725Z,99.99
2017-02-01T07:43:29.241Z,99.99
2017-02-01T07:44:29.637Z,99.99
2017-02-01T07:45:29.189Z,99.99
2017-02-01T07:46:29.164Z,99.99
2017-02-01T07:47:29.136Z,99.99
2017-02-01T07:48:29.524Z,99.99
2017-02-01T07:49:29.582Z,99.99
2017-02-01T07:50:29.456Z,99.99
2017-02-01T07:51:29.442Z,99.99
2017-02-01T07:52:29.419Z,99.99
2017-02-01T07:53:28.981Z,99.99
2017-02-01T07:54:28.968Z,99.99
2017-02-01T07:55:28.940Z,99.99
2017-02-01T07:56:29.303Z,99.99
2017-02-01T07:57:29.290Z,99.99
2017-02-01T07:58:28.858Z,99.99
2017-02-01T07:59:28.823Z,99.99
2017-02-01T08:00:28.808Z,99.99
2017-02-01T08:01:29.172Z,99.99
2017-02-01T08:02:29.155Z,99.99
2017-02-01T08:03:29.321Z,99.99
2017-02-01T08:04:29.103Z,99.99
2017-02-01T08:05:28.671Z,99.99
2017-02-01T08:06:29.093Z,99.99
2017-02-01T08:07:29.022Z,99.99
2017-02-01T08:08:28.588Z,99.99
2017-02-01T08:09:28.970Z,99.99
2017-02-01T08:10:28.532Z,99.99
2017-02-01T08:11:28.912Z,99.99
2017-02-01T08:12:28.888Z,99.99
2017-02-01T08:13:28.862Z,99.99
2017-02-01T08:14:28.826Z,99.99
2017-02-01T08:15:28.821Z,99.99
2017-02-01T08:16:28.781Z,99.99
2017-02-01T08:17:28.759Z,99.99
2017-02-01T08:18:28.333Z,99.99
2017-02-01T08:19:28.701Z,99.99
2017-02-01T08:20:28.678Z,99.99
2017-02-01T08:21:28.248Z,99.99
2017-02-01T08:22:28.624Z,99.99
2017-02-01T08:23:28.203Z,99.99
2017-02-01T08:24:28.174Z,99.99
2017-02-01T08:25:28.559Z,99.99
2017-02-01T08:26:28.522Z,99.99
2017-02-01T08:27:28.092Z,99.99
2017-02-01T08:28:28.508Z,99.99
2017-02-01T08:29:28.440Z,99.99
2017-02-01T08:30:28.441Z,99.99
2017-02-01T08:31:28.440Z,99.99
2017-02-01T08:32:28.359Z,99.99
2017-02-01T08:33:28.338Z,99.99
2017-02-01T08:34:27.910Z,99.99
2017-02-01T08:35:27.878Z,99.99
2017-02-01T08:36:28.268Z,99.99
2017-02-01T08:37:28.237Z,99.99
2017-02-01T08:38:27.803Z,99.99
2017-02-01T08:39:28.217Z,99.99
2017-02-01T08:40:27.742Z,99.99
2017-02-01T08:41:28.218Z,99.99
2017-02-01T08:42:27.687Z,99.99
2017-02-01T08:43:27.676Z,99.99
2017-02-01T08:44:27.636Z,99.99
2017-02-01T08:45:28.051Z,99.99
2017-02-01T08:46:28.073Z,99.99
2017-02-01T08:47:27.572Z,99.99
2017-02-01T08:48:27.531Z,99.99
2017-02-01T08:49:27.922Z,99.99
2017-02-01T08:50:27.887Z,99.99
2017-02-01T08:51:27.507Z,99.99
2017-02-01T08:52:27.829Z,99.99
2017-02-01T08:53:27.808Z,99.99
2017-02-01T08:54:27.794Z,99.99
2017-02-01T08:55:27.356Z,99.99
2017-02-01T08:56:27.768Z,99.99
2017-02-01T08:57:27.736Z,99.99
2017-02-01T08:58:27.669Z,99.99
2017-02-01T08:59:27.659Z,99.99
2017-02-01T09:00:27.711Z,99.99
2017-02-01T09:01:27.195Z,99.99
2017-02-01T09:02:27.159Z,99.99
2017-02-01T09:03:27.538Z,99.99
2017-02-01T09:04:27.111Z,99.99
2017-02-01T09:05:27.482Z,99.99
2017-02-01T09:06:27.498Z,99.99
2017-02-01T09:07:27.028Z,99.99
2017-02-01T09:08:26.997Z,99.99
2017-02-01T09:09:27.384Z,99.99
2017-02-01T09:10:27.431Z,99.99
2017-02-01T09:11:27.327Z,99.99
2017-02-01T09:12:27.298Z,99.99
2017-02-01T09:13:27.277Z,99.99
2017-02-01T09:14:27.255Z,99.99
2017-02-01T09:15:26.813Z,99.99
2017-02-01T09:16:27.195Z,99.99
2017-02-01T09:17:26.764Z,99.99
2017-02-01T09:18:27.140Z,99.99
2017-02-01T09:19:26.708Z,99.99
2017-02-01T09:20:26.676Z,99.99
2017-02-01T09:21:27.058Z,99.99
2017-02-01T09:22:26.633Z,99.99
2017-02-01T09:23:27.005Z,99.99
2017-02-01T09:24:26.578Z,99.99
2017-02-01T09:25:26.558Z,99.99
2017-02-01T09:26:26.926Z,99.99
2017-02-01T09:27:26.902Z,99.99
2017-02-01T09:28:26.882Z,99.99
2017-02-01T09:29:26.845Z,99.99
2017-02-01T09:30:26.418Z,99.99
2017-02-01T09:31:26.792Z,99.99
2017-02-01T09:32:26.356Z,99.99
2017-02-01T09:33:26.742Z,99.99
2017-02-01T09:34:26.310Z,99.99
2017-02-01T09:35:26.296Z,99.99
2017-02-01T09:36:26.659Z,99.99
2017-02-01T09:37:26.633Z,99.99
2017-02-01T09:38:26.207Z,99.99
2017-02-01T09:39:26.592Z,99.99
2017-02-01T09:40:26.153Z,99.99
2017-02-01T09:41:26.135Z,99.99
2017-02-01T09:42:26.121Z,99.99
2017-02-01T09:43:26.481Z,99.99
2017-02-01T09:44:26.449Z,99.99
2017-02-01T09:45:26.020Z,99.99
2017-02-01T09:46:26.410Z,99.99
2017-02-01T09:47:26.378Z,99.99
2017-02-01T09:48:26.022Z,99.99
2017-02-01T09:49:25.938Z,99.99
2017-02-01T09:50:25.905Z,99.99
2017-02-01T09:51:26.266Z,99.99
2017-02-01T09:52:26.247Z,99.99
2017-02-01T09:53:26.213Z,99.99
2017-02-01T09:54:25.836Z,99.99
2017-02-01T09:55:25.759Z,99.99
2017-02-01T09:56:26.190Z,99.99
2017-02-01T09:57:25.715Z,99.99
2017-02-01T09:58:26.143Z,99.99
2017-02-01T09:59:26.069Z,99.99
2017-02-01T10:00:26.079Z,99.99
2017-02-01T10:01:26.072Z,99.99
2017-02-01T10:02:25.631Z,99.99
2017-02-01T10:03:25.961Z,99.99
2017-02-01T10:04:26.000Z,99.99
2017-02-01T10:05:25.503Z,99.99
2017-02-01T10:06:25.950Z,99.99
2017-02-01T10:07:25.870Z,99.99
2017-02-01T10:08:25.838Z,99.99
2017-02-01T10:09:25.933Z,99.99
2017-02-01T10:10:25.787Z,99.99
2017-02-01T10:11:25.357Z,99.99
2017-02-01T10:12:25.405Z,99.99
2017-02-01T10:13:25.312Z,99.99
2017-02-01T10:14:25.715Z,99.99
2017-02-01T10:15:25.681Z,99.99
2017-02-01T10:16:25.620Z,99.99
2017-02-01T10:17:25.604Z,99.99
2017-02-01T10:18:25.573Z,99.99
2017-02-01T10:19:25.541Z,99.99
2017-02-01T10:20:25.144Z,99.99
2017-02-01T10:21:25.592Z,99.99
2017-02-01T10:22:25.461Z,99.99
2017-02-01T10:23:25.506Z,99.99
2017-02-01T10:24:25.421Z,99.99
2017-02-01T10:25:24.996Z,99.99
2017-02-01T10:26:24.954Z,99.99
2017-02-01T10:27:25.354Z,99.99
2017-02-01T10:28:24.909Z,99.99
2017-02-01T10:29:24.886Z,99.99
2017-02-01T10:30:25.251Z,99.99
2017-02-01T10:31:25.232Z,99.99
2017-02-01T10:32:25.235Z,99.99
2017-02-01T10:33:25.187Z,99.99
2017-02-01T10:34:25.152Z,99.99
2017-02-01T10:35:25.145Z,99.99
2017-02-01T10:36:25.104Z,99.99
2017-02-01T10:37:24.675Z,99.99
2017-02-01T10:38:25.049Z,99.99
2017-02-01T10:39:25.018Z,99.99
2017-02-01T10:40:24.995Z,99.99
2017-02-01T10:41:24.979Z,99.99
2017-02-01T10:42:24.541Z,99.99
2017-02-01T10:43:24.918Z,99.99
2017-02-01T10:44:24.490Z,99.99
2017-02-01T10:45:24.865Z,99.99
2017-02-01T10:46:24.438Z,99.99
2017-02-01T10:47:24.829Z,99.99
2017-02-01T10:48:24.799Z,99.99
2017-02-01T10:49:24.368Z,99.99
2017-02-01T10:50:24.376Z,99.99
2017-02-01T10:51:24.316Z,99.99
2017-02-01T10:52:24.685Z,99.99
2017-02-01T10:53:24.255Z,99.99
2017-02-01T10:54:24.673Z,99.99
2017-02-01T10:55:24.623Z,99.99
2017-02-01T10:56:24.587Z,99.99
2017-02-01T10:57:24.560Z,99.99
2017-02-01T10:58:24.133Z,99.99
2017-02-01T10:59:24.561Z,99.99
2017-02-01T11:00:24.496Z,99.99
2017-02-01T11:01:24.560Z,99.99
2017-02-01T11:02:24.448Z,99.99
2017-02-01T11:03:24.114Z,99.99
2017-02-01T11:04:24.383Z,99.99
2017-02-01T11:05:24.511Z,99.99
2017-02-01T11:06:24.340Z,99.99
2017-02-01T11:07:24.362Z,99.99
2017-02-01T11:08:24.275Z,99.99
2017-02-01T11:09:24.269Z,99.99
2017-02-01T11:10:23.836Z,99.99
2017-02-01T11:11:23.859Z,99.99
2017-02-01T11:12:24.178Z,99.99
2017-02-01T11:13:23.756Z,99.99
2017-02-01T11:14:24.175Z,99.99
2017-02-01T11:15:24.105Z,99.99
2017-02-01T11:16:24.085Z,99.99
2017-02-01T11:17:24.070Z,99.99
2017-02-01T11:18:24.083Z,99.99
2017-02-01T11:19:24.072Z,99.99
2017-02-01T11:20:24.025Z,99.99
2017-02-01T11:21:24.061Z,99.99
2017-02-01T11:22:23.934Z,99.99
2017-02-01T11:23:23.921Z,99.99
2017-02-01T11:24:23.875Z,99.99
2017-02-01T11:25:23.508Z,99.99
2017-02-01T11:26:23.847Z,99.99
2017-02-01T11:27:23.895Z,99.99
2017-02-01T11:28:23.884Z,99.99
2017-02-01T11:29:23.743Z,99.99
2017-02-01T11:30:23.315Z,99.99
2017-02-01T11:31:23.713Z,99.99
2017-02-01T11:32:23.261Z,99.99
2017-02-01T11:33:23.243Z,99.99
2017-02-01T11:34:23.622Z,99.99
2017-02-01T11:35:23.191Z,99.99
2017-02-01T11:36:23.171Z,99.99
2017-02-01T11:37:23.157Z,99.99
2017-02-01T11:38:23.532Z,99.99
2017-02-01T11:39:23.494Z,99.99
2017-02-01T11:40:23.569Z,99.99
2017-02-01T11:41:23.458Z,99.99
2017-02-01T11:42:23.023Z,99.99
2017-02-01T11:43:23.408Z,99.99
2017-02-01T11:44:22.979Z,99.99
2017-02-01T11:45:23.365Z,99.99
2017-02-01T11:46:22.936Z,99.99
2017-02-01T11:47:22.911Z,99.99
2017-02-01T11:48:23.337Z,99.99
2017-02-01T11:49:23.291Z,99.99
2017-02-01T11:50:23.239Z,99.99
2017-02-01T11:51:23.229Z,99.99
2017-02-01T11:52:23.202Z,99.99
2017-02-01T11:53:23.170Z,99.99
2017-02-01T11:54:23.150Z,99.99
2017-02-01T11:55:23.127Z,99.99
2017-02-01T11:56:23.106Z,99.99
2017-02-01T11:57:22.681Z,99.99
2017-02-01T11:58:23.059Z,99.99
2017-02-01T11:59:22.639Z,99.99
2017-02-01T12:00:23.013Z,99.99
2017-02-01T12:01:22.992Z,99.99
2017-02-01T12:02:22.963Z,99.99
2017-02-01T12:03:22.946Z,99.36
2017-02-01T12:04:22.919Z,99.16
2017-02-01T12:05:22.893Z,98.27
2017-02-01T12:06:22.898Z,96.79
2017-02-01T12:07:22.872Z,95.75
2017-02-01T12:08:22.831Z,94.42
2017-02-01T12:09:22.811Z,93.32
2017-02-01T12:10:22.799Z,92.84
2017-02-01T12:11:22.765Z,92.65
2017-02-01T12:12:22.347Z,95.65
2017-02-01T12:13:22.329Z,96.65
2017-02-01T12:14:22.302Z,97.03
2017-02-01T12:15:22.697Z,97.79
2017-02-01T12:16:22.280Z,98.6
2017-02-01T12:17:22.645Z,98.6
2017-02-01T12:18:22.606Z,98.55
2017-02-01T12:19:22.609Z,95.75
2017-02-01T12:20:22.596Z,94.42
2017-02-01T12:21:22.556Z,93.32
2017-02-01T12:22:22.541Z,94.08
2017-02-01T12:23:22.523Z,95.46
2017-02-01T12:24:22.504Z,96.17
2017-02-01T12:25:22.081Z,97.69
2017-02-01T12:26:22.463Z,96.08
2017-02-01T12:27:22.432Z,96.7
2017-02-01T12:28:22.415Z,97.13
2017-02-01T12:29:22.403Z,99.07
2017-02-01T12:30:22.373Z,99.26
2017-02-01T12:31:22.425Z,99.36
2017-02-01T12:32:22.328Z,99.84
2017-02-01T12:33:22.313Z,99.99
2017-02-01T12:34:21.889Z,99.99
2017-02-01T12:35:22.269Z,99.99
2017-02-01T12:36:21.853Z,99.99
2017-02-01T12:37:21.826Z,99.99
2017-02-01T12:38:22.220Z,99.99
2017-02-01T12:39:21.784Z,99.99
2017-02-01T12:40:22.169Z,99.31
2017-02-01T12:41:22.144Z,98.74
2017-02-01T12:42:21.723Z,98.98
2017-02-01T12:43:21.704Z,98.36
2017-02-01T12:44:22.074Z,96.89
2017-02-01T12:45:21.656Z,97.08
2017-02-01T12:46:22.036Z,95.79
2017-02-01T12:47:22.012Z,95.27
2017-02-01T12:48:21.607Z,94.37
2017-02-01T12:49:21.973Z,93.17
2017-02-01T12:50:21.951Z,93.55
2017-02-01T12:51:21.944Z,93.03
2017-02-01T12:52:21.915Z,92.32